createdAt,value
2019-05-15T00:00:08.893Z,8.87
2019-05-15T00:02:38.824Z,8.82
2019-05-15T00:05:08.978Z,8.54
2019-05-15T00:07:39.315Z,9.79
2019-05-15T00:10:08.949Z,9.84
2019-05-15T00:12:39.542Z,9.84
2019-05-15T00:15:09.238Z,9.02
2019-05-15T00:17:39.441Z,8.67
2019-05-15T00:20:09.872Z,8.92
2019-05-15T00:22:38.865Z,8.83
2019-05-15T00:25:09.282Z,8.85
2019-05-15T00:27:38.665Z,8.34
2019-05-15T00:30:10.476Z,8.36
2019-05-15T00:32:39.461Z,8.14
2019-05-15T00:35:09.320Z,9.76
2019-05-15T00:37:39.020Z,9.76
2019-05-15T00:40:08.888Z,8.60
2019-05-15T00:42:38.542Z,8.72
2019-05-15T00:45:09.450Z,9.00
2019-05-15T00:47:39.622Z,9.71
2019-05-15T00:50:09.447Z,9.71
2019-05-15T00:52:39.263Z,9.56
2019-05-15T00:55:08.745Z,9.56
2019-05-15T00:57:39.219Z,9.11
2019-05-15T01:00:08.474Z,8.71
2019-05-15T01:02:38.917Z,9.03
2019-05-15T01:05:08.277Z,10.04
2019-05-15T01:07:38.962Z,10.04
2019-05-15T01:10:09.769Z,8.62
2019-05-15T01:12:38.708Z,8.63
2019-05-15T01:15:09.276Z,8.63
2019-05-15T01:17:38.975Z,8.56
2019-05-15T01:20:08.910Z,8.66
2019-05-15T01:22:39.471Z,8.83
2019-05-15T01:25:08.585Z,9.26
2019-05-15T01:27:38.602Z,9.26
2019-05-15T01:30:09.010Z,9.17
2019-05-15T01:32:39.389Z,10.37
2019-05-15T01:35:09.743Z,10.37
2019-05-15T01:37:39.176Z,10.48
2019-05-15T01:40:08.833Z,10.02
2019-05-15T01:42:38.595Z,10.20
2019-05-15T01:45:08.994Z,9.62
2019-05-15T01:47:38.894Z,8.86
2019-05-15T01:50:09.299Z,8.65
2019-05-15T01:52:39.089Z,10.33
2019-05-15T01:55:09.260Z,8.63
2019-05-15T01:57:38.567Z,8.88
2019-05-15T02:00:09.034Z,8.89
2019-05-15T02:02:39.115Z,8.89
2019-05-15T02:05:09.018Z,8.84
2019-05-15T02:18:44.042Z,8.74
2019-05-15T02:21:12.338Z,8.41
2019-05-15T02:23:40.659Z,10.15
2019-05-15T02:26:09.185Z,8.79
2019-05-15T02:28:38.362Z,8.55
2019-05-15T02:31:10.336Z,8.54
2019-05-15T02:33:39.964Z,8.55
2019-05-15T02:38:53.611Z,8.32
2019-05-15T02:41:21.907Z,8.32
2019-05-15T02:43:50.354Z,8.39
2019-05-15T02:46:19.595Z,8.41
2019-05-15T02:48:48.910Z,9.08
2019-05-15T02:51:19.373Z,8.15
2019-05-15T02:53:50.041Z,7.96
2019-05-15T02:56:20.313Z,8.36
2019-05-15T02:58:49.127Z,8.48
2019-05-15T03:01:18.981Z,8.25
2019-05-15T03:03:49.807Z,8.33
2019-05-15T03:06:19.258Z,8.42
2019-05-15T03:08:49.573Z,8.19
2019-05-15T03:11:19.147Z,8.19
2019-05-15T03:13:50.399Z,8.52
2019-05-15T03:16:19.411Z,8.52
2019-05-15T03:18:50.492Z,9.36
2019-05-15T03:21:18.895Z,9.36
2019-05-15T03:23:50.555Z,8.39
2019-05-15T03:26:19.726Z,8.39
2019-05-15T03:28:49.595Z,8.48
2019-05-15T03:31:35.606Z,9.96
2019-05-15T03:33:53.338Z,8.21
2019-05-15T03:36:23.315Z,9.83
2019-05-15T03:38:49.961Z,8.62
2019-05-15T03:41:19.480Z,8.62
2019-05-15T03:43:49.607Z,8.40
2019-05-15T03:46:19.996Z,8.46
2019-05-15T03:48:48.738Z,8.74
2019-05-15T03:51:19.821Z,8.35
2019-05-15T03:53:49.705Z,8.35
2019-05-15T03:56:19.134Z,8.52
2019-05-15T03:58:49.367Z,8.25
2019-05-15T04:01:30.184Z,8.46
2019-05-15T04:03:49.582Z,8.59
2019-05-15T04:06:19.320Z,8.56
2019-05-15T04:08:49.706Z,8.72
2019-05-15T04:11:20.385Z,8.78
2019-05-15T04:13:49.990Z,8.78
2019-05-15T04:16:19.224Z,8.25
2019-05-15T04:18:49.116Z,8.25
2019-05-15T04:21:19.972Z,8.50
2019-05-15T04:23:50.061Z,8.24
2019-05-15T04:26:19.397Z,8.41
2019-05-15T04:28:49.466Z,8.74
2019-05-15T04:31:19.328Z,8.31
2019-05-15T04:33:49.069Z,8.46
2019-05-15T04:36:19.149Z,9.53
2019-05-15T04:38:49.673Z,9.10
2019-05-15T04:41:19.715Z,9.85
2019-05-15T04:43:49.507Z,8.94
2019-05-15T04:46:19.724Z,9.72
2019-05-15T04:48:50.236Z,10.14
2019-05-15T04:51:19.198Z,9.10
2019-05-15T04:53:50.371Z,8.83
2019-05-15T04:56:19.270Z,8.88
2019-05-15T04:58:50.687Z,9.14
2019-05-15T05:01:19.922Z,9.04
2019-05-15T05:03:49.554Z,9.33
2019-05-15T05:06:19.106Z,9.30
2019-05-15T05:08:49.123Z,10.56
2019-05-15T05:11:19.378Z,11.02
2019-05-15T05:13:48.481Z,9.24
2019-05-15T05:16:19.075Z,9.15
2019-05-15T05:18:48.842Z,9.32
2019-05-15T05:21:18.396Z,9.35
2019-05-15T05:23:48.385Z,9.33
2019-05-15T05:26:18.578Z,8.97
2019-05-15T05:28:48.697Z,9.38
2019-05-15T05:31:19.047Z,9.13
2019-05-15T05:33:48.653Z,11.16
2019-05-15T05:36:18.557Z,9.67
2019-05-15T05:38:49.440Z,8.90
2019-05-15T05:41:18.935Z,9.28
2019-05-15T05:43:48.711Z,9.18
2019-05-15T05:46:18.438Z,8.89
2019-05-15T05:48:48.966Z,9.01
2019-05-15T05:51:19.016Z,9.12
2019-05-15T05:53:48.075Z,9.03
2019-05-15T05:56:18.112Z,9.03
2019-05-15T05:58:48.992Z,8.80
2019-05-15T06:01:18.723Z,9.07
2019-05-15T06:03:48.893Z,9.04
2019-05-15T06:06:18.639Z,9.09
2019-05-15T06:08:47.988Z,9.13
2019-05-15T06:11:18.427Z,9.08
2019-05-15T06:13:50.074Z,9.02
2019-05-15T06:16:18.834Z,9.01
2019-05-15T06:18:49.228Z,9.00
2019-05-15T06:21:17.917Z,9.06
2019-05-15T06:23:53.997Z,8.99
2019-05-15T06:26:19.339Z,8.58
2019-05-15T06:28:48.973Z,8.94
2019-05-15T06:31:18.909Z,8.96
2019-05-15T06:33:49.019Z,8.87
2019-05-15T06:36:18.015Z,8.72
2019-05-15T06:38:48.349Z,8.87
2019-05-15T06:41:18.090Z,8.75
2019-05-15T06:43:48.403Z,8.75
2019-05-15T06:46:18.797Z,8.56
2019-05-15T06:48:48.530Z,8.56
2019-05-15T06:51:18.209Z,8.79
2019-05-15T06:53:49.162Z,8.67
2019-05-15T06:56:18.750Z,8.67
2019-05-15T06:58:48.784Z,8.32
2019-05-15T07:01:18.948Z,8.60
2019-05-15T07:03:48.410Z,8.83
2019-05-15T07:06:18.158Z,8.84
2019-05-15T07:08:49.281Z,8.81
2019-05-15T07:11:18.912Z,8.81
2019-05-15T07:13:48.614Z,9.12
2019-05-15T07:16:18.148Z,9.12
2019-05-15T07:18:48.503Z,8.81
2019-05-15T07:21:19.986Z,8.81
2019-05-15T07:23:49.370Z,8.92
2019-05-15T07:26:18.283Z,8.41
2019-05-15T07:28:48.581Z,8.84
2019-05-15T07:31:18.040Z,8.20
2019-05-15T07:33:49.073Z,8.20
2019-05-15T07:36:19.215Z,8.57
2019-05-15T07:38:48.502Z,7.98
2019-05-15T07:41:18.475Z,8.69
2019-05-15T07:43:49.398Z,8.50
2019-05-15T07:46:18.504Z,9.08
2019-05-15T07:48:49.046Z,9.08
2019-05-15T07:51:18.040Z,8.26
2019-05-15T07:53:49.073Z,8.44
2019-05-15T07:56:18.131Z,8.54
2019-05-15T07:58:52.072Z,8.54
2019-05-15T08:01:18.583Z,8.62
2019-05-15T08:03:56.622Z,10.77
2019-05-15T08:06:18.031Z,9.64
2019-05-15T08:08:48.564Z,9.64
2019-05-15T08:11:21.855Z,10.96
2019-05-15T08:13:48.697Z,9.32
2019-05-15T08:16:18.115Z,9.32
2019-05-15T08:18:48.403Z,9.70
2019-05-15T08:21:18.571Z,9.77
2019-05-15T08:23:48.417Z,9.78
2019-05-15T08:26:17.828Z,10.16
2019-05-15T08:28:48.726Z,10.58
2019-05-15T08:31:18.377Z,10.30
2019-05-15T08:33:48.218Z,10.68
2019-05-15T08:36:18.365Z,11.00
2019-05-15T08:38:48.608Z,11.20
2019-05-15T08:41:18.583Z,11.11
2019-05-15T08:43:48.627Z,10.81
2019-05-15T08:46:18.668Z,12.24
2019-05-15T08:48:49.119Z,10.62
2019-05-15T08:51:19.252Z,10.98
2019-05-15T08:53:48.834Z,10.80
2019-05-15T08:56:19.470Z,10.32
2019-05-15T08:58:48.647Z,9.81
2019-05-15T09:01:18.100Z,10.02
2019-05-15T09:03:48.814Z,9.98
2019-05-15T09:06:20.652Z,9.88
2019-05-15T09:08:49.016Z,9.81
2019-05-15T09:11:19.139Z,10.47
2019-05-15T09:13:52.725Z,11.27
2019-05-15T09:16:18.543Z,10.45
2019-05-15T09:18:48.541Z,10.23
2019-05-15T09:21:19.134Z,9.69
2019-05-15T09:23:49.838Z,10.12
2019-05-15T09:26:19.522Z,10.17
2019-05-15T09:28:49.458Z,10.24
2019-05-15T09:31:19.248Z,10.42
2019-05-15T09:33:49.273Z,9.62
2019-05-15T09:36:20.126Z,9.98
2019-05-15T09:38:49.056Z,9.69
2019-05-15T09:41:18.053Z,10.43
2019-05-15T09:43:48.507Z,10.44
2019-05-15T09:46:18.452Z,10.36
2019-05-15T09:48:51.292Z,10.32
2019-05-15T09:51:18.352Z,10.04
2019-05-15T09:53:48.446Z,10.31
2019-05-15T09:56:18.636Z,11.29
2019-05-15T09:58:49.027Z,10.15
2019-05-15T10:01:19.597Z,9.84
2019-05-15T10:03:48.477Z,9.91
2019-05-15T10:06:20.044Z,11.01
2019-05-15T10:08:48.960Z,9.93
2019-05-15T10:11:19.667Z,10.00
2019-05-15T10:13:47.770Z,10.15
2019-05-15T10:16:19.543Z,10.19
2019-05-15T10:18:50.972Z,11.01
2019-05-15T10:21:18.590Z,11.45
2019-05-15T10:23:48.998Z,9.85
2019-05-15T10:26:19.067Z,11.45
2019-05-15T10:28:49.034Z,10.01
2019-05-15T10:31:19.256Z,9.97
2019-05-15T10:33:48.946Z,10.16
2019-05-15T10:36:18.851Z,9.68
2019-05-15T10:38:48.860Z,10.18
2019-05-15T10:41:18.830Z,10.02
2019-05-15T10:43:56.010Z,10.40
2019-05-15T10:46:18.984Z,10.54
2019-05-15T10:48:49.246Z,10.25
2019-05-15T10:51:19.514Z,11.31
2019-05-15T10:53:48.811Z,11.16
2019-05-15T10:56:18.626Z,11.22
2019-05-15T10:58:50.120Z,11.87
2019-05-15T11:01:19.181Z,10.11
2019-05-15T11:03:49.604Z,11.00
2019-05-15T11:06:18.327Z,10.20
2019-05-15T11:08:51.112Z,9.66
2019-05-15T11:11:18.338Z,10.02
2019-05-15T11:13:46.891Z,10.01
2019-05-15T11:16:15.607Z,10.04
2019-05-15T11:18:43.982Z,10.43
2019-05-15T11:21:12.285Z,10.62
2019-05-15T11:23:42.635Z,10.04
2019-05-15T11:26:10.720Z,10.20
2019-05-15T11:28:39.507Z,9.88
2019-05-15T11:31:10.342Z,10.07
2019-05-15T11:33:38.760Z,9.82
2019-05-15T11:36:07.118Z,9.93
2019-05-15T11:38:37.967Z,9.85
2019-05-15T11:41:05.520Z,9.81
2019-05-15T11:43:33.835Z,9.33
2019-05-15T11:46:02.541Z,9.61
2019-05-15T11:48:31.227Z,10.19
2019-05-15T11:50:59.921Z,10.72
2019-05-15T11:53:28.603Z,11.35
2019-05-15T11:55:59.674Z,10.20
2019-05-15T11:58:28.168Z,9.96
2019-05-15T12:00:57.962Z,9.36
2019-05-15T12:03:28.864Z,9.59
2019-05-15T12:05:59.689Z,11.11
2019-05-15T12:08:29.385Z,11.23
2019-05-15T12:10:59.171Z,9.35
2019-05-15T12:13:28.001Z,9.51
2019-05-15T12:15:58.751Z,9.56
2019-05-15T12:18:28.549Z,9.56
2019-05-15T12:20:59.653Z,10.91
2019-05-15T12:23:29.158Z,9.44
2019-05-15T12:25:59.747Z,9.76
2019-05-15T12:28:29.544Z,9.52
2019-05-15T12:30:59.639Z,9.68
2019-05-15T12:33:28.931Z,9.18
2019-05-15T12:35:57.851Z,10.32
2019-05-15T12:38:28.880Z,9.80
2019-05-15T13:00:58.441Z,10.08
2019-05-15T13:03:28.730Z,10.23
2019-05-15T13:05:56.870Z,10.34
2019-05-15T13:08:25.163Z,11.67
2019-05-15T13:10:53.468Z,10.39
2019-05-15T13:13:21.782Z,10.54
2019-05-15T13:15:50.152Z,9.97
2019-05-15T13:18:18.466Z,10.03
2019-05-15T13:20:48.905Z,10.23
2019-05-15T13:23:16.827Z,10.23
2019-05-15T13:25:45.131Z,9.91
2019-05-15T13:28:13.454Z,10.15
2019-05-15T13:30:41.845Z,9.74
2019-05-15T13:33:10.480Z,9.71
2019-05-15T13:35:39.159Z,11.26
2019-05-15T13:38:10.077Z,11.18
2019-05-15T13:40:42.156Z,9.75
2019-05-15T13:43:08.673Z,9.75
2019-05-15T13:45:38.622Z,9.83
2019-05-15T13:48:08.868Z,9.83
2019-05-15T13:50:40.402Z,10.07
2019-05-15T13:53:10.924Z,10.07
2019-05-15T13:55:42.248Z,10.14
2019-05-15T13:58:08.959Z,10.36
2019-05-15T14:00:39.140Z,10.51
2019-05-15T14:03:09.143Z,10.42
2019-05-15T14:05:38.307Z,10.26
2019-05-15T14:08:07.027Z,10.28
2019-05-15T14:10:35.630Z,10.19
2019-05-15T14:13:04.703Z,9.86
2019-05-15T14:15:33.352Z,10.47
2019-05-15T14:18:02.484Z,11.15
2019-05-15T14:20:30.872Z,12.08
2019-05-15T14:22:59.231Z,10.10
2019-05-15T14:25:27.551Z,10.28
2019-05-15T14:27:55.885Z,10.18
2019-05-15T14:30:24.242Z,10.04
2019-05-15T14:32:52.551Z,10.99
2019-05-15T14:35:21.130Z,10.08
2019-05-15T14:38:02.539Z,10.03
2019-05-15T14:40:20.119Z,9.69
2019-05-15T14:42:48.714Z,9.60
2019-05-15T14:45:19.069Z,10.04
2019-05-15T14:47:49.187Z,9.65
2019-05-15T14:50:17.710Z,9.71
2019-05-15T14:52:47.956Z,9.56
2019-05-15T14:55:16.959Z,9.54
2019-05-15T14:57:45.274Z,9.56
2019-05-15T15:00:14.085Z,9.28
2019-05-15T15:02:42.404Z,9.20
2019-05-15T15:05:10.856Z,10.99
2019-05-15T15:07:39.187Z,10.02
2019-05-15T15:10:08.393Z,9.98
2019-05-15T15:12:39.524Z,10.17
2019-05-15T15:15:10.006Z,9.74
2019-05-15T15:17:38.611Z,10.98
2019-05-15T15:20:07.795Z,10.06
2019-05-15T15:22:39.108Z,9.88
2019-05-15T15:25:09.498Z,10.56
2019-05-15T15:27:39.046Z,10.20
2019-05-15T15:30:09.301Z,9.65
2019-05-15T15:32:38.348Z,9.72
2019-05-15T15:35:08.540Z,10.11
2019-05-15T15:37:38.174Z,9.77
2019-05-15T15:40:08.393Z,9.83
2019-05-15T15:42:39.546Z,9.76
2019-05-15T15:45:08.980Z,10.18
2019-05-15T15:47:38.935Z,9.80
2019-05-15T15:50:09.815Z,9.66
2019-05-15T15:52:39.021Z,9.84
2019-05-15T15:55:09.051Z,10.08
2019-05-15T15:57:39.665Z,10.21
2019-05-15T16:00:08.987Z,10.21
2019-05-15T16:02:40.606Z,10.15
2019-05-15T16:05:08.223Z,9.88
2019-05-15T16:07:37.952Z,9.93
2019-05-15T16:10:08.597Z,9.72
2019-05-15T16:12:38.837Z,9.77
2019-05-15T16:15:09.058Z,9.98
2019-05-15T16:17:38.486Z,10.12
2019-05-15T16:20:08.662Z,10.15
2019-05-15T16:22:38.189Z,9.75
2019-05-15T16:25:10.466Z,9.83
2019-05-15T16:27:39.226Z,9.98
2019-05-15T16:30:08.468Z,9.72
2019-05-15T16:32:38.768Z,9.69
2019-05-15T16:35:08.419Z,9.35
2019-05-15T16:37:38.856Z,9.65
2019-05-15T16:40:08.714Z,9.54
2019-05-15T16:42:38.425Z,9.48
2019-05-15T16:45:09.667Z,9.45
2019-05-15T16:47:38.866Z,9.58
2019-05-15T16:50:09.175Z,10.19
2019-05-15T16:52:38.904Z,9.19
2019-05-15T16:55:09.410Z,10.35
2019-05-15T16:57:38.748Z,9.33
2019-05-15T17:00:09.810Z,9.55
2019-05-15T17:02:39.624Z,9.55
2019-05-15T17:05:09.668Z,9.56
2019-05-15T17:07:39.087Z,9.32
2019-05-15T17:10:08.831Z,9.32
2019-05-15T17:12:38.756Z,8.79
2019-05-15T17:15:09.112Z,8.90
2019-05-15T17:17:38.679Z,9.35
2019-05-15T17:20:10.086Z,8.95
2019-05-15T17:22:38.905Z,8.82
2019-05-15T17:25:09.681Z,8.82
2019-05-15T17:27:38.246Z,8.54
2019-05-15T17:30:09.457Z,9.97
2019-05-15T17:32:38.962Z,10.09
2019-05-15T17:35:09.783Z,10.09
2019-05-15T17:37:38.524Z,8.77
2019-05-15T17:40:07.856Z,9.11
2019-05-15T17:42:38.901Z,8.69
2019-05-15T17:45:09.031Z,8.67
2019-05-15T17:47:38.769Z,8.59
2019-05-15T17:50:08.621Z,8.59
2019-05-15T17:52:38.667Z,8.85
2019-05-15T17:55:07.568Z,9.46
2019-05-15T17:57:38.326Z,8.50
2019-05-15T18:00:12.457Z,8.51
2019-05-15T18:02:40.027Z,8.51
2019-05-15T18:05:09.002Z,8.52
2019-05-15T18:07:38.953Z,8.52
2019-05-15T18:10:08.365Z,8.56
2019-05-15T18:12:38.883Z,9.69
2019-05-15T18:15:08.987Z,9.69
2019-05-15T18:17:39.265Z,8.41
2019-05-15T18:20:09.799Z,8.40
2019-05-15T18:22:38.822Z,8.40
2019-05-15T18:25:08.988Z,8.28
2019-05-15T18:27:38.799Z,8.19
2019-05-15T18:30:09.278Z,8.31
2019-05-15T18:32:39.026Z,8.28
2019-05-15T18:35:08.417Z,8.33
2019-05-15T18:37:39.321Z,8.33
2019-05-15T18:40:09.893Z,8.22
2019-05-15T18:42:39.012Z,8.69
2019-05-15T18:45:11.783Z,8.37
2019-05-15T18:47:40.435Z,8.35
2019-05-15T18:50:13.176Z,8.35
2019-05-15T18:52:39.461Z,8.66
2019-05-15T18:55:08.236Z,8.36
2019-05-15T18:57:38.499Z,8.26
2019-05-15T19:00:08.773Z,8.26
2019-05-15T19:02:39.217Z,8.17
2019-05-15T19:05:08.441Z,8.01
2019-05-15T19:07:38.269Z,7.96
2019-05-15T19:10:09.183Z,8.07
2019-05-15T19:12:37.973Z,8.35
2019-05-15T19:15:09.243Z,8.53
2019-05-15T19:17:38.779Z,8.53
2019-05-15T19:20:08.600Z,8.43
2019-05-15T19:22:40.545Z,8.17
2019-05-15T19:25:08.847Z,8.19
2019-05-15T19:27:39.348Z,8.40
2019-05-15T19:30:08.816Z,8.40
2019-05-15T19:32:38.733Z,8.21
2019-05-15T19:35:08.189Z,8.01
2019-05-15T19:37:38.310Z,7.99
2019-05-15T19:40:07.395Z,8.11
2019-05-15T19:42:38.090Z,8.00
2019-05-15T19:45:08.561Z,7.91
2019-05-15T19:47:38.723Z,7.98
2019-05-15T19:50:08.467Z,7.76
2019-05-15T19:52:37.033Z,7.91
2019-05-15T19:55:05.764Z,7.91
2019-05-15T19:57:34.133Z,7.98
2019-05-15T20:00:02.485Z,7.76
2019-05-15T20:02:30.774Z,7.76
2019-05-15T20:04:59.100Z,7.86
2019-05-15T20:07:28.613Z,7.86
2019-05-15T20:09:58.415Z,8.27
2019-05-15T20:12:27.898Z,9.47
2019-05-15T20:14:58.340Z,9.47
2019-05-15T20:17:27.715Z,9.32
2019-05-15T20:19:58.101Z,9.17
2019-05-15T20:22:28.394Z,9.68
2019-05-15T20:24:58.759Z,9.68
2019-05-15T20:27:28.214Z,9.06
2019-05-15T20:29:57.183Z,7.78
2019-05-15T20:32:27.799Z,8.44
2019-05-15T20:34:57.783Z,9.48
2019-05-15T20:37:25.974Z,9.48
2019-05-15T20:39:54.271Z,7.75
2019-05-15T20:42:22.584Z,7.75
2019-05-15T20:44:51.056Z,9.02
2019-05-15T20:47:19.381Z,9.46
2019-05-15T20:49:48.582Z,9.46
2019-05-15T20:52:21.086Z,9.33
2019-05-15T20:54:48.006Z,9.36
2019-05-15T20:57:16.695Z,9.36
2019-05-15T20:59:45.011Z,9.06
2019-05-15T21:02:13.778Z,9.06
2019-05-15T21:04:42.093Z,9.28
2019-05-15T21:07:10.467Z,8.95
2019-05-15T21:09:39.617Z,8.42
2019-05-15T21:12:09.833Z,33.31
2019-05-15T21:14:40.069Z,33.31
2019-05-15T21:17:08.699Z,28.49
2019-05-15T21:19:38.563Z,28.49
2019-05-15T21:22:08.384Z,27.19
2019-05-15T21:24:37.796Z,27.09
2019-05-15T21:27:06.252Z,27.62
2019-05-15T21:29:34.556Z,27.91
2019-05-15T21:32:02.873Z,25.32
2019-05-15T21:34:37.572Z,25.32
2019-05-15T21:37:01.202Z,25.75
2019-05-15T21:39:30.250Z,25.75
2019-05-15T21:41:59.350Z,25.52
2019-05-15T21:44:29.342Z,24.65
2019-05-15T21:46:58.737Z,24.65
2019-05-15T21:49:28.180Z,26.45
2019-05-15T21:51:58.393Z,25.87
2019-05-15T21:54:28.189Z,25.03
2019-05-15T21:57:12.935Z,25.47
2019-05-15T21:59:27.930Z,25.47
2019-05-15T22:01:58.867Z,26.60
2019-05-15T22:04:28.120Z,25.46
2019-05-15T22:06:58.431Z,24.24
2019-05-15T22:09:28.994Z,25.25
2019-05-15T22:12:01.006Z,25.25
2019-05-15T22:14:27.746Z,24.36
2019-05-15T22:16:58.116Z,23.24
2019-05-15T22:19:30.240Z,25.30
2019-05-15T22:21:58.659Z,23.18
2019-05-15T22:24:28.570Z,24.30
2019-05-15T22:26:58.723Z,23.53
2019-05-15T22:29:28.795Z,24.15
2019-05-15T22:31:59.054Z,24.15
2019-05-15T22:34:28.548Z,23.66
2019-05-15T22:36:58.258Z,23.79
2019-05-15T22:39:28.063Z,23.79
2019-05-15T22:41:56.655Z,23.86
2019-05-15T22:44:24.948Z,23.75
2019-05-15T22:46:53.261Z,23.14
2019-05-15T22:49:21.560Z,23.14
2019-05-15T22:51:49.932Z,22.92
2019-05-15T22:54:20.443Z,21.60
2019-05-15T22:56:48.393Z,23.37
2019-05-15T22:59:17.191Z,23.12
2019-05-15T23:01:45.475Z,24.06
2019-05-15T23:04:13.798Z,22.57
2019-05-15T23:06:42.096Z,22.57
2019-05-15T23:09:10.417Z,23.88
2019-05-15T23:11:39.539Z,22.08
2019-05-15T23:14:08.294Z,22.28
2019-05-15T23:16:38.978Z,21.81
2019-05-15T23:19:08.150Z,22.89
2019-05-15T23:21:37.831Z,22.89
2019-05-15T23:24:08.509Z,22.60
2019-05-15T23:26:38.815Z,22.84
2019-05-15T23:29:07.985Z,23.74
2019-05-15T23:31:36.610Z,23.74
2019-05-15T23:34:04.973Z,23.17
2019-05-15T23:36:33.326Z,21.99
2019-05-15T23:39:01.814Z,21.99
2019-05-15T23:41:30.115Z,21.71
2019-05-15T23:43:58.441Z,21.78
2019-05-15T23:46:28.852Z,21.62
2019-05-15T23:48:58.840Z,23.05
2019-05-15T23:51:27.950Z,22.65
2019-05-15T23:53:58.596Z,22.65
2019-05-15T23:56:28.857Z,22.84
2019-05-15T23:58:56.367Z,22.64
